createdAt,value
2018-05-12T15:22:29.567Z,13.33
2018-05-12T15:24:58.733Z,12.23
2018-05-12T15:27:27.998Z,11.17
2018-05-12T15:29:57.104Z,14.53
2018-05-12T15:32:26.326Z,12.83
2018-05-12T15:34:55.465Z,14.43
2018-05-12T15:37:24.568Z,10.03
2018-05-12T15:39:53.820Z,15.17
2018-05-12T15:42:22.909Z,10.23
2018-05-12T15:44:52.017Z,11.90
2018-05-12T15:47:21.205Z,11.80
2018-05-12T15:49:50.321Z,12.93
2018-05-12T15:52:19.445Z,12.30
2018-05-12T15:54:48.542Z,12.10
2018-05-12T15:57:17.698Z,14.00
2018-05-12T16:03:44.008Z,14.60
2018-05-12T16:06:12.627Z,12.97
2018-05-12T16:08:41.011Z,12.57
2018-05-12T16:11:09.357Z,12.80
2018-05-12T16:13:37.759Z,10.67
2018-05-12T16:16:06.242Z,10.33
2018-05-12T16:18:34.628Z,11.93
2018-05-12T16:21:02.940Z,12.20
2018-05-12T16:23:31.312Z,15.20
2018-05-12T16:25:59.699Z,12.33
2018-05-12T16:28:28.323Z,11.13
2018-05-12T16:30:56.806Z,13.23
2018-05-12T16:33:25.196Z,14.20
2018-05-12T16:35:53.661Z,13.00
2018-05-12T16:38:22.052Z,18.30
2018-05-12T16:40:50.522Z,16.43
2018-05-12T16:43:19.104Z,14.93
2018-05-12T16:45:47.583Z,17.97
2018-05-12T17:16:36.641Z,30.43
2018-05-12T17:19:03.468Z,24.57
2018-05-12T17:21:30.210Z,26.20
2018-05-12T17:23:57.054Z,26.63
2018-05-12T17:26:23.803Z,27.97
2018-05-12T17:28:50.635Z,29.57
2018-05-12T17:31:17.478Z,32.40
2018-05-12T17:33:45.137Z,20.73
2018-05-12T17:36:12.081Z,12.20
2018-05-12T17:38:39.025Z,13.83
2018-05-12T17:41:05.868Z,22.27
2018-05-12T17:43:32.715Z,12.23
2018-05-12T17:45:59.561Z,11.07
2018-05-12T17:48:26.393Z,14.17
2018-05-12T17:50:53.236Z,14.20
2018-05-12T17:53:19.975Z,16.47
2018-05-12T17:55:46.902Z,19.17
2018-05-12T17:58:13.866Z,21.13
2018-05-12T18:00:40.711Z,18.83
2018-05-12T18:03:10.551Z,18.13
2018-05-12T18:05:39.677Z,18.00
2018-05-12T18:08:07.380Z,16.97
2018-05-12T18:10:34.218Z,16.20
2018-05-12T18:13:01.070Z,22.03
2018-05-12T18:15:27.870Z,15.17
2018-05-12T18:17:54.646Z,21.13
2018-05-12T18:20:21.484Z,16.27
2018-05-12T18:22:48.225Z,15.83
2018-05-12T18:25:15.067Z,15.13
2018-05-12T18:27:41.909Z,17.30
2018-05-12T18:30:08.752Z,16.50
2018-05-12T18:32:35.594Z,16.87
2018-05-12T18:35:02.437Z,16.37
2018-05-12T18:37:29.278Z,15.10
2018-05-12T18:39:56.120Z,14.57
2018-05-12T18:42:22.961Z,14.37
2018-05-12T18:44:49.803Z,14.07
2018-05-12T18:47:16.651Z,15.70
2018-05-12T18:49:43.591Z,17.27
2018-05-12T18:52:10.434Z,15.53
2018-05-12T18:54:37.376Z,22.02
2018-05-12T18:57:04.224Z,18.00
2018-05-12T18:59:31.070Z,15.27
2018-05-12T19:01:57.909Z,20.20
2018-05-12T19:04:24.749Z,14.83
2018-05-12T19:06:51.792Z,15.17
2018-05-12T19:09:18.745Z,17.87
2018-05-12T19:11:45.682Z,15.00
2018-05-12T19:14:12.525Z,14.57
2018-05-12T19:16:39.469Z,19.87
2018-05-12T19:19:06.226Z,18.53
2018-05-12T19:21:33.049Z,16.10
2018-05-12T19:23:59.900Z,15.93
2018-05-12T19:26:26.939Z,13.57
2018-05-12T19:28:53.780Z,13.30
2018-05-12T19:31:20.623Z,16.10
2018-05-12T19:33:48.285Z,11.37
2018-05-12T19:36:15.124Z,10.33
2018-05-12T19:38:41.967Z,10.17
2018-05-12T19:41:08.812Z,11.23
2018-05-12T19:43:35.652Z,10.20
2018-05-12T19:46:02.494Z,9.47
2018-05-12T19:48:30.071Z,11.57
2018-05-12T19:50:57.000Z,9.00
2018-05-12T19:53:23.942Z,9.67
2018-05-12T19:55:50.784Z,13.27
2018-05-12T19:58:17.636Z,10.30
2018-05-12T20:00:44.473Z,9.27
2018-05-12T20:03:11.309Z,8.47
2018-05-12T20:05:38.079Z,12.20
2018-05-12T20:08:05.917Z,11.10
2018-05-12T20:10:32.758Z,8.57
2018-05-12T20:12:59.602Z,12.73
2018-05-12T20:15:26.442Z,7.73
2018-05-12T20:17:53.285Z,10.80
2018-05-12T20:20:20.128Z,8.53
2018-05-12T20:22:46.969Z,12.13
2018-05-12T20:25:13.814Z,21.47
2018-05-12T20:27:40.553Z,22.97
2018-05-12T20:30:07.394Z,26.93
2018-05-12T20:32:34.235Z,36.00
2018-05-12T20:35:01.077Z,14.30
2018-05-12T20:37:27.981Z,12.50
2018-05-12T20:39:54.864Z,20.60
2018-05-12T20:42:21.706Z,25.73
2018-05-12T20:44:48.553Z,26.37
2018-05-12T20:47:15.313Z,28.33
2018-05-12T20:49:42.949Z,34.03
2018-05-12T20:52:09.790Z,39.63
2018-05-12T20:54:36.633Z,36.90
2018-05-12T20:57:03.577Z,36.83
2018-05-12T20:59:30.338Z,31.50
2018-05-12T21:05:23.600Z,36.53
2018-05-12T21:17:07.396Z,26.20
2018-05-12T21:19:34.236Z,26.83
2018-05-12T21:22:01.080Z,26.70
2018-05-12T21:24:27.961Z,25.33
2018-05-12T21:26:55.592Z,22.30
2018-05-12T21:29:22.656Z,24.23
2018-05-12T21:31:50.188Z,24.50
2018-05-12T21:34:17.031Z,24.77
2018-05-12T21:36:43.874Z,26.33
2018-05-12T21:39:10.716Z,22.07
2018-05-12T21:41:37.572Z,14.13
2018-05-12T21:44:04.405Z,14.10
2018-05-12T21:46:31.651Z,14.33
2018-05-12T21:48:58.596Z,10.70
2018-05-12T21:51:25.440Z,8.83
2018-05-12T21:53:52.282Z,10.47
2018-05-12T21:56:19.123Z,16.87
2018-05-12T21:58:46.069Z,20.93
2018-05-12T22:01:12.910Z,15.10
2018-05-12T22:03:39.765Z,10.90
2018-05-12T22:06:06.602Z,9.77
2018-05-12T22:08:33.434Z,10.70
2018-05-12T22:11:00.277Z,10.20
2018-05-12T22:13:27.119Z,10.90
2018-05-12T22:15:53.962Z,9.10
2018-05-12T22:18:20.802Z,10.57
2018-05-12T22:20:47.647Z,10.50
2018-05-12T22:23:14.795Z,10.40
2018-05-12T22:25:41.636Z,10.23
2018-05-12T22:28:08.479Z,8.63
2018-05-12T22:30:35.456Z,10.10
2018-05-12T22:33:02.370Z,8.03
2018-05-12T22:35:29.323Z,9.57
2018-05-12T22:37:56.157Z,10.03
2018-05-12T22:40:23.100Z,9.27
2018-05-12T22:42:49.945Z,10.60
2018-05-12T22:45:16.783Z,8.90
2018-05-12T22:47:43.833Z,11.83
2018-05-12T22:50:10.778Z,8.30
2018-05-12T22:52:37.621Z,10.67
2018-05-12T22:55:04.463Z,10.13
2018-05-12T22:57:31.302Z,10.33
2018-05-12T22:59:58.259Z,10.77
2018-05-12T23:02:25.087Z,9.50
2018-05-12T23:04:52.034Z,10.43
2018-05-12T23:07:18.873Z,12.20
2018-05-12T23:09:45.924Z,10.43
2018-05-12T23:12:12.686Z,10.63
2018-05-12T23:14:40.323Z,9.27
2018-05-12T23:17:07.164Z,9.43
2018-05-12T23:19:34.008Z,7.80
2018-05-12T23:22:00.847Z,7.80
2018-05-12T23:24:27.690Z,10.30
2018-05-12T23:26:54.635Z,9.10
2018-05-12T23:29:21.477Z,9.80
2018-05-12T23:31:48.316Z,7.50
2018-05-12T23:34:15.159Z,12.63
2018-05-12T23:36:42.012Z,8.57
2018-05-12T23:39:08.847Z,7.77
2018-05-12T23:41:35.686Z,8.67
2018-05-12T23:44:02.531Z,6.50
2018-05-12T23:46:29.370Z,7.47
2018-05-12T23:48:56.220Z,7.47
2018-05-12T23:51:23.390Z,6.87
2018-05-12T23:53:50.204Z,7.63
2018-05-12T23:56:17.049Z,6.70
2018-05-12T23:58:43.891Z,5.97
